Time;durP1;ratioP1;P1;durP2;ratioP2;P2;SDS_P1;SDS_P2;PMS_P1;PMS_P2;Temp;Humidity;BMP_temperature;BMP_pressure;BME280_temperature;BME280_humidity;BME280_pressure;Samples;Min_cycle;Max_cycle;Signal;HPM_P1;HPM_P2
2024/04/08 00:01:12;;;;;;;3.40;1.98;;;;;;;;;;5007809;28;20121;-58
2024/04/08 00:03:37;;;;;;;4.47;1.95;;;;;;;;;;5025024;28;20358;-57
2024/04/08 00:06:03;;;;;;;3.13;1.60;;;;;;;;;;5025192;28;20033;-55
2024/04/08 00:08:29;;;;;;;4.60;1.90;;;;;;;;;;5041032;28;20029;-58
2024/04/08 00:10:54;;;;;;;2.05;1.45;;;;;;;;;;5025225;28;20520;-59
2024/04/08 00:13:20;;;;;;;3.55;1.73;;;;;;;;;;5026925;28;20034;-55
2024/04/08 00:15:46;;;;;;;3.97;1.92;;;;;;;;;;5026572;28;20048;-56
2024/04/08 00:18:13;;;;;;;3.20;2.22;;;;;;;;;;5024877;28;20037;-57
2024/04/08 00:20:39;;;;;;;3.15;2.00;;;;;;;;;;5024423;28;20478;-57
2024/04/08 00:23:04;;;;;;;3.15;1.85;;;;;;;;;;5025072;28;20064;-52
2024/04/08 00:25:32;;;;;;;4.43;1.70;;;;;;;;;;5024051;28;20075;-55
2024/04/08 00:27:58;;;;;;;2.42;1.80;;;;;;;;;;5024307;28;20061;-57
2024/04/08 00:30:25;;;;;;;2.28;1.70;;;;;;;;;;5025589;28;20792;-58
2024/04/08 00:32:50;;;;;;;3.80;1.90;;;;;;;;;;5007093;28;20524;-54
2024/04/08 00:35:16;;;;;;;2.17;1.33;;;;;;;;;;5023827;28;20052;-55
2024/04/08 00:37:42;;;;;;;2.65;1.92;;;;;;;;;;5036126;28;20065;-57
2024/04/08 00:40:08;;;;;;;2.95;1.77;;;;;;;;;;5024158;28;20041;-54
2024/04/08 00:42:33;;;;;;;4.32;2.08;;;;;;;;;;5007069;28;20105;-54
2024/04/08 00:44:59;;;;;;;3.78;2.03;;;;;;;;;;5026045;28;20624;-58
2024/04/08 00:47:25;;;;;;;4.13;2.00;;;;;;;;;;5024584;28;20034;-58
2024/04/08 00:49:51;;;;;;;3.58;1.92;;;;;;;;;;5025894;28;20029;-57
2024/04/08 00:52:17;;;;;;;4.30;1.80;;;;;;;;;;5025262;28;20497;-54
2024/04/08 00:54:43;;;;;;;3.00;1.95;;;;;;;;;;5026048;28;20068;-56
2024/04/08 00:57:09;;;;;;;2.85;2.08;;;;;;;;;;5026251;28;20029;-58
2024/04/08 00:59:35;;;;;;;3.25;1.80;;;;;;;;;;5030087;28;20037;-53
2024/04/08 01:02:01;;;;;;;3.55;1.85;;;;;;;;;;5024037;28;20038;-57
2024/04/08 01:04:32;;;;;;;4.38;1.50;;;;;;;;;;5012332;28;20044;-54
2024/04/08 01:07:00;;;;;;;4.70;1.90;;;;;;;;;;5010140;28;20076;-55
2024/04/08 01:09:27;;;;;;;2.90;2.00;;;;;;;;;;5027602;28;20107;-53
2024/04/08 01:11:53;;;;;;;4.35;1.90;;;;;;;;;;5027309;28;20045;-52
2024/04/08 01:14:18;;;;;;;3.35;2.10;;;;;;;;;;5027802;28;20064;-55
2024/04/08 01:16:45;;;;;;;3.05;1.75;;;;;;;;;;5044644;28;20528;-55
2024/04/08 01:19:13;;;;;;;2.67;1.67;;;;;;;;;;5029272;28;20025;-54
2024/04/08 01:21:40;;;;;;;2.72;1.95;;;;;;;;;;5029504;28;20128;-56
2024/04/08 01:24:06;;;;;;;2.38;1.58;;;;;;;;;;5028446;28;20041;-56
2024/04/08 01:26:31;;;;;;;3.53;1.80;;;;;;;;;;5011048;28;20471;-59
2024/04/08 01:28:57;;;;;;;2.95;1.67;;;;;;;;;;5028737;28;20533;-54
2024/04/08 01:31:23;;;;;;;3.45;1.70;;;;;;;;;;5044067;28;20151;-51
2024/04/08 01:33:48;;;;;;;2.20;1.60;;;;;;;;;;5037968;28;20703;-56
2024/04/08 01:36:15;;;;;;;3.47;1.80;;;;;;;;;;5028749;28;20068;-53
2024/04/08 01:38:40;;;;;;;2.63;1.48;;;;;;;;;;5028864;28;20056;-57
2024/04/08 01:41:06;;;;;;;3.60;1.63;;;;;;;;;;5029054;28;20029;-54
2024/04/08 01:43:32;;;;;;;4.43;1.83;;;;;;;;;;5027068;28;20064;-56
2024/04/08 01:45:59;;;;;;;4.45;1.92;;;;;;;;;;5028823;28;20056;-56
2024/04/08 01:48:25;;;;;;;4.25;1.42;;;;;;;;;;5027074;28;20093;-58
2024/04/08 01:50:50;;;;;;;2.55;1.83;;;;;;;;;;5027438;28;20033;-58
2024/04/08 01:53:16;;;;;;;4.03;1.80;;;;;;;;;;5028451;28;20567;-58
2024/04/08 01:55:42;;;;;;;4.43;1.70;;;;;;;;;;5028616;28;20040;-53
2024/04/08 01:58:07;;;;;;;6.35;1.83;;;;;;;;;;5027687;28;20041;-55
2024/04/08 02:00:33;;;;;;;4.32;1.95;;;;;;;;;;5028894;28;20516;-58
2024/04/08 02:02:59;;;;;;;2.88;1.80;;;;;;;;;;5028400;28;20486;-58
2024/04/08 02:05:25;;;;;;;1.90;1.50;;;;;;;;;;5027939;28;20048;-57
2024/04/08 02:07:50;;;;;;;2.08;1.52;;;;;;;;;;5043705;28;20033;-54
2024/04/08 02:10:18;;;;;;;4.22;2.05;;;;;;;;;;5026089;28;20040;-56
2024/04/08 02:12:44;;;;;;;3.92;1.75;;;;;;;;;;5026960;28;20064;-58
2024/04/08 02:15:10;;;;;;;2.40;2.03;;;;;;;;;;5034230;28;20068;-58
2024/04/08 02:17:36;;;;;;;2.53;1.70;;;;;;;;;;5028326;28;20060;-56
2024/04/08 02:20:01;;;;;;;3.15;2.00;;;;;;;;;;5026707;28;20056;-52
2024/04/08 02:22:31;;;;;;;3.42;2.13;;;;;;;;;;5028009;28;20124;-58
2024/04/08 02:24:57;;;;;;;6.53;2.20;;;;;;;;;;5027212;28;20140;-56
2024/04/08 02:27:22;;;;;;;2.97;1.95;;;;;;;;;;5043229;28;20061;-55
2024/04/08 02:29:49;;;;;;;2.88;1.80;;;;;;;;;;5026741;28;20056;-54
2024/04/08 02:32:15;;;;;;;3.42;2.67;;;;;;;;;;5027905;28;20083;-53
2024/04/08 02:34:41;;;;;;;3.08;2.10;;;;;;;;;;5027172;28;20038;-54
2024/04/08 02:37:06;;;;;;;3.95;2.13;;;;;;;;;;5027567;28;20029;-57
2024/04/08 02:39:32;;;;;;;5.65;2.78;;;;;;;;;;5028003;28;20044;-56
2024/04/08 02:41:58;;;;;;;4.30;2.67;;;;;;;;;;5027964;28;20034;-56
2024/04/08 02:44:23;;;;;;;2.97;2.15;;;;;;;;;;5026072;28;20107;-58
2024/04/08 02:46:49;;;;;;;3.75;2.00;;;;;;;;;;5027413;28;20036;-55
2024/04/08 02:49:15;;;;;;;5.95;3.00;;;;;;;;;;5042980;28;20052;-55
2024/04/08 02:51:41;;;;;;;4.65;2.83;;;;;;;;;;5027350;28;20037;-54
2024/04/08 02:54:06;;;;;;;4.75;3.22;;;;;;;;;;5027411;28;20344;-57
2024/04/08 02:56:32;;;;;;;6.30;2.83;;;;;;;;;;5026578;28;20033;-59
2024/04/08 02:58:57;;;;;;;5.72;3.00;;;;;;;;;;5027120;28;20033;-57
2024/04/08 03:01:23;;;;;;;3.25;2.15;;;;;;;;;;5027149;28;20481;-57
2024/04/08 03:03:49;;;;;;;5.80;2.88;;;;;;;;;;5027127;28;20040;-55
2024/04/08 03:06:15;;;;;;;4.07;2.60;;;;;;;;;;5025320;28;20496;-58
2024/04/08 03:08:41;;;;;;;5.32;3.15;;;;;;;;;;5025703;28;20767;-57
2024/04/08 03:11:07;;;;;;;6.40;3.00;;;;;;;;;;5026685;28;20057;-58
2024/04/08 03:13:34;;;;;;;4.43;2.63;;;;;;;;;;5025398;28;20041;-54
2024/04/08 03:16:00;;;;;;;5.80;2.75;;;;;;;;;;5026392;28;20040;-58
2024/04/08 03:18:25;;;;;;;4.30;2.80;;;;;;;;;;5027028;28;20037;-58
2024/04/08 03:20:55;;;;;;;3.22;2.63;;;;;;;;;;5009314;28;20041;-57
2024/04/08 03:23:20;;;;;;;;;;;;;;;;;;5027274;28;20033;-59
2024/04/08 03:25:46;;;;;;;5.97;2.92;;;;;;;;;;5025931;28;19962;-57
2024/04/08 03:28:11;;;;;;;9.35;2.75;;;;;;;;;;5041355;28;20489;-56
2024/04/08 03:30:37;;;;;;;5.65;2.88;;;;;;;;;;5041950;28;20037;-55
2024/04/08 03:33:03;;;;;;;6.07;2.53;;;;;;;;;;5024808;28;20029;-59
2024/04/08 03:35:32;;;;;;;5.75;3.05;;;;;;;;;;5024909;28;20048;-55
2024/04/08 03:37:57;;;;;;;5.63;3.38;;;;;;;;;;5038776;28;20038;-55
2024/04/08 03:40:23;;;;;;;8.48;3.40;;;;;;;;;;5026507;28;20049;-57
2024/04/08 03:42:49;;;;;;;5.55;2.67;;;;;;;;;;5026836;28;20067;-54
2024/04/08 03:45:15;;;;;;;5.85;2.67;;;;;;;;;;5024909;28;20103;-55
2024/04/08 03:47:41;;;;;;;3.83;2.35;;;;;;;;;;5025337;28;20041;-56
2024/04/08 03:50:07;;;;;;;3.83;2.05;;;;;;;;;;5025766;28;20041;-55
2024/04/08 03:52:33;;;;;;;5.05;3.03;;;;;;;;;;5025204;28;20044;-53
2024/04/08 03:54:59;;;;;;;5.75;2.90;;;;;;;;;;5025972;28;20034;-55
2024/04/08 03:57:25;;;;;;;5.45;2.70;;;;;;;;;;5025415;28;20091;-55
2024/04/08 03:59:51;;;;;;;4.85;2.50;;;;;;;;;;5041297;28;20029;-57
2024/04/08 04:02:17;;;;;;;5.95;2.70;;;;;;;;;;5026156;28;20048;-57
2024/04/08 04:04:42;;;;;;;3.65;2.38;;;;;;;;;;5025878;28;20041;-56
2024/04/08 04:07:08;;;;;;;5.22;2.20;;;;;;;;;;5025460;28;20571;-60
2024/04/08 04:09:33;;;;;;;2.97;1.85;;;;;;;;;;5026409;28;20291;-56
2024/04/08 04:11:59;;;;;;;4.05;2.17;;;;;;;;;;5025076;28;20034;-56
2024/04/08 04:14:25;;;;;;;3.58;2.22;;;;;;;;;;5024821;28;20493;-55
2024/04/08 04:16:51;;;;;;;3.58;2.20;;;;;;;;;;5037193;28;20501;-57
2024/04/08 04:19:17;;;;;;;7.20;2.83;;;;;;;;;;5041493;28;20038;-60
2024/04/08 04:21:43;;;;;;;3.67;2.13;;;;;;;;;;5024667;28;20026;-56
2024/04/08 04:24:08;;;;;;;3.75;2.03;;;;;;;;;;5008391;28;20780;-50
2024/04/08 04:26:34;;;;;;;3.05;1.80;;;;;;;;;;5025278;28;20052;-55
2024/04/08 04:28:59;;;;;;;6.22;2.40;;;;;;;;;;5025738;28;20519;-55
2024/04/08 04:31:25;;;;;;;4.15;2.20;;;;;;;;;;5025376;28;20037;-56
2024/04/08 04:33:51;;;;;;;2.70;2.00;;;;;;;;;;5027287;28;20501;-57
2024/04/08 04:36:17;;;;;;;6.50;2.55;;;;;;;;;;5029608;28;20029;-55
2024/04/08 04:38:42;;;;;;;4.32;2.38;;;;;;;;;;5014257;28;20048;-54
2024/04/08 04:41:09;;;;;;;4.80;2.75;;;;;;;;;;5028115;28;20033;-53
2024/04/08 04:43:35;;;;;;;3.88;2.22;;;;;;;;;;5029667;28;20423;-54
2024/04/08 04:46:01;;;;;;;4.50;2.13;;;;;;;;;;5029426;28;20037;-50
2024/04/08 04:48:27;;;;;;;6.00;2.25;;;;;;;;;;5027302;28;20099;-50
2024/04/08 04:50:53;;;;;;;2.70;1.88;;;;;;;;;;5029837;28;20421;-52
2024/04/08 04:53:18;;;;;;;5.07;2.85;;;;;;;;;;5029859;28;20046;-52
2024/04/08 04:55:51;;;;;;;6.05;2.83;;;;;;;;;;5019131;28;20410;-52
2024/04/08 04:58:17;;;;;;;3.92;1.83;;;;;;;;;;5027348;28;20037;-50
2024/04/08 05:00:43;;;;;;;4.35;2.28;;;;;;;;;;5029035;28;20397;-57
2024/04/08 05:03:08;;;;;;;5.60;2.50;;;;;;;;;;5029584;28;20182;-54
2024/04/08 05:05:34;;;;;;;4.35;2.47;;;;;;;;;;5028078;28;20041;-53
2024/04/08 05:07:59;;;;;;;4.30;2.55;;;;;;;;;;5029096;28;20038;-57
2024/04/08 05:10:26;;;;;;;3.00;1.88;;;;;;;;;;5029181;28;20037;-56
2024/04/08 05:12:52;;;;;;;3.72;1.85;;;;;;;;;;5029104;28;20128;-58
2024/04/08 05:15:18;;;;;;;3.90;2.00;;;;;;;;;;5029075;28;20083;-54
2024/04/08 05:17:44;;;;;;;4.10;2.50;;;;;;;;;;5029133;28;20128;-53
2024/04/08 05:20:10;;;;;;;4.53;2.75;;;;;;;;;;5028411;28;20103;-57
2024/04/08 05:22:36;;;;;;;8.50;2.58;;;;;;;;;;5028827;28;20452;-58
2024/04/08 05:25:01;;;;;;;7.07;2.90;;;;;;;;;;5043760;28;20068;-53
2024/04/08 05:27:27;;;;;;;3.22;2.25;;;;;;;;;;5043610;28;20122;-53
2024/04/08 05:29:53;;;;;;;4.93;2.30;;;;;;;;;;5027347;28;20045;-57
2024/04/08 05:32:19;;;;;;;6.07;2.50;;;;;;;;;;5010158;28;20052;-57
2024/04/08 05:34:44;;;;;;;5.00;2.70;;;;;;;;;;5028404;28;20052;-58
2024/04/08 05:37:10;;;;;;;6.80;2.60;;;;;;;;;;5028303;28;20034;-57
2024/04/08 05:39:35;;;;;;;4.20;2.45;;;;;;;;;;5027972;28;20033;-54
2024/04/08 05:42:01;;;;;;;3.63;2.28;;;;;;;;;;5028323;28;20136;-54
2024/04/08 05:44:27;;;;;;;11.80;2.78;;;;;;;;;;5026862;28;20485;-55
2024/04/08 05:46:52;;;;;;;8.13;3.33;;;;;;;;;;5028396;28;20037;-58
2024/04/08 05:49:18;;;;;;;8.60;2.90;;;;;;;;;;5043576;28;20087;-55
2024/04/08 05:51:44;;;;;;;5.43;2.83;;;;;;;;;;5027783;28;20056;-56
2024/04/08 05:54:09;;;;;;;5.50;2.60;;;;;;;;;;5043830;28;20579;-54
2024/04/08 05:56:35;;;;;;;5.28;2.70;;;;;;;;;;5044127;28;20065;-57
2024/04/08 05:59:01;;;;;;;5.35;2.67;;;;;;;;;;5029127;28;20114;-55
2024/04/08 06:01:27;;;;;;;9.45;3.35;;;;;;;;;;4995627;28;20131;-56
2024/04/08 06:03:53;;;;;;;5.97;2.63;;;;;;;;;;5008866;28;20049;-57
2024/04/08 06:06:19;;;;;;;7.30;3.22;;;;;;;;;;5007385;28;20034;-56
2024/04/08 06:08:47;;;;;;;4.22;2.35;;;;;;;;;;5009593;28;20080;-57
2024/04/08 06:11:13;;;;;;;8.27;2.88;;;;;;;;;;5026033;28;20509;-55
2024/04/08 06:13:38;;;;;;;5.18;3.20;;;;;;;;;;5027702;28;20037;-56
2024/04/08 06:16:04;;;;;;;4.50;3.00;;;;;;;;;;5042972;28;20072;-56
2024/04/08 06:18:30;;;;;;;4.80;2.50;;;;;;;;;;5027394;28;20421;-56
2024/04/08 06:20:56;;;;;;;10.65;3.40;;;;;;;;;;5025636;28;20110;-57
2024/04/08 06:23:21;;;;;;;4.95;3.10;;;;;;;;;;5026276;28;20099;-59
2024/04/08 06:25:47;;;;;;;10.57;2.50;;;;;;;;;;5026012;28;20091;-58
2024/04/08 06:28:13;;;;;;;5.75;3.13;;;;;;;;;;5027676;28;20049;-56
2024/04/08 06:30:39;;;;;;;5.43;2.80;;;;;;;;;;5032909;28;20037;-58
2024/04/08 06:33:06;;;;;;;4.63;3.08;;;;;;;;;;5027318;28;20053;-57
2024/04/08 06:35:32;;;;;;;4.65;3.03;;;;;;;;;;5026716;28;20037;-55
2024/04/08 06:37:58;;;;;;;9.85;3.53;;;;;;;;;;5027358;28;20034;-57
2024/04/08 06:40:23;;;;;;;4.75;3.10;;;;;;;;;;5026464;28;20162;-55
2024/04/08 06:42:49;;;;;;;10.85;3.63;;;;;;;;;;5026973;28;20040;-58
2024/04/08 06:45:15;;;;;;;4.60;2.75;;;;;;;;;;5025723;28;20069;-54
2024/04/08 06:47:40;;;;;;;6.95;2.83;;;;;;;;;;5027237;28;20033;-57
2024/04/08 06:50:06;;;;;;;8.70;2.63;;;;;;;;;;5026808;28;20060;-56
2024/04/08 06:52:32;;;;;;;2.95;2.50;;;;;;;;;;5042066;28;20088;-57
2024/04/08 06:54:58;;;;;;;6.53;3.45;;;;;;;;;;5042040;28;20509;-60
2024/04/08 06:57:25;;;;;;;5.25;3.17;;;;;;;;;;5009259;28;20037;-57
2024/04/08 06:59:52;;;;;;;5.13;2.80;;;;;;;;;;5025599;28;20084;-59
2024/04/08 07:02:18;;;;;;;6.63;3.10;;;;;;;;;;5026263;28;20037;-61
2024/04/08 07:04:43;;;;;;;9.32;3.22;;;;;;;;;;5026738;28;20056;-60
2024/04/08 07:07:09;;;;;;;7.57;3.13;;;;;;;;;;5026562;28;20124;-61
2024/04/08 07:09:35;;;;;;;5.65;3.03;;;;;;;;;;5041575;28;20064;-58
2024/04/08 07:12:02;;;;;;;5.93;3.03;;;;;;;;;;5024746;28;20045;-60
2024/04/08 07:14:28;;;;;;;7.80;3.30;;;;;;;;;;5041977;28;20064;-62
2024/04/08 07:16:54;;;;;;;6.93;3.47;;;;;;;;;;5026700;28;20061;-62
2024/04/08 07:19:21;;;;;;;7.43;3.33;;;;;;;;;;5008483;28;20037;-60
2024/04/08 07:21:47;;;;;;;6.05;3.05;;;;;;;;;;5025958;28;20045;-63
2024/04/08 07:24:13;;;;;;;6.13;3.30;;;;;;;;;;5026399;28;20041;-61
2024/04/08 07:26:41;;;;;;;6.13;3.00;;;;;;;;;;5026784;28;20045;-60
2024/04/08 07:29:07;;;;;;;7.97;2.80;;;;;;;;;;5026952;28;20051;-59
2024/04/08 07:31:32;;;;;;;5.78;3.50;;;;;;;;;;5024870;28;20055;-60
2024/04/08 07:33:58;;;;;;;5.13;2.70;;;;;;;;;;5025320;28;20048;-61
2024/04/08 07:36:24;;;;;;;5.18;3.05;;;;;;;;;;5041626;28;20140;-59
2024/04/08 07:38:50;;;;;;;8.13;3.03;;;;;;;;;;5026216;28;20022;-61
2024/04/08 07:41:17;;;;;;;5.45;3.10;;;;;;;;;;5024752;28;20043;-63
2024/04/08 07:43:43;;;;;;;8.23;3.50;;;;;;;;;;5024249;28;20038;-61
2024/04/08 07:46:09;;;;;;;10.40;3.03;;;;;;;;;;5024704;28;20532;-60
2024/04/08 07:48:35;;;;;;;7.95;3.10;;;;;;;;;;5025864;28;20037;-59
2024/04/08 07:51:00;;;;;;;8.30;3.08;;;;;;;;;;5025511;28;20033;-60
2024/04/08 07:53:27;;;;;;;5.57;2.90;;;;;;;;;;5023487;28;20033;-57
2024/04/08 07:55:52;;;;;;;3.75;2.40;;;;;;;;;;5009615;28;20137;-59
2024/04/08 07:58:18;;;;;;;5.13;2.80;;;;;;;;;;5023603;28;20123;-60
2024/04/08 08:00:54;;;;;;;6.53;2.85;;;;;;;;;;5025682;28;20115;-59
2024/04/08 08:03:20;;;;;;;9.27;3.08;;;;;;;;;;5028485;28;20081;-58
2024/04/08 08:05:46;;;;;;;4.63;2.83;;;;;;;;;;5006479;28;20073;-61
2024/04/08 08:08:11;;;;;;;4.60;3.00;;;;;;;;;;5005602;28;20053;-59
2024/04/08 08:10:37;;;;;;;7.82;2.50;;;;;;;;;;5006202;28;20172;-60
2024/04/08 08:13:03;;;;;;;3.67;2.70;;;;;;;;;;5005874;28;20044;-58
2024/04/08 08:15:29;;;;;;;6.63;2.70;;;;;;;;;;5025843;28;20060;-59
2024/04/08 08:17:55;;;;;;;6.05;2.38;;;;;;;;;;5023955;28;20511;-61
2024/04/08 08:20:21;;;;;;;5.10;2.90;;;;;;;;;;5025190;28;20056;-58
2024/04/08 08:22:47;;;;;;;6.70;2.78;;;;;;;;;;5025510;28;20042;-59
2024/04/08 08:25:13;;;;;;;5.75;2.47;;;;;;;;;;5020455;28;20049;-59
2024/04/08 08:27:38;;;;;;;4.43;2.75;;;;;;;;;;5006222;28;20042;-58
2024/04/08 08:30:04;;;;;;;9.88;2.67;;;;;;;;;;5006177;28;20065;-59
2024/04/08 08:32:30;;;;;;;4.90;2.80;;;;;;;;;;5008590;28;20148;-59
2024/04/08 08:34:56;;;;;;;10.10;2.60;;;;;;;;;;5040591;28;20187;-58
2024/04/08 08:37:21;;;;;;;4.13;2.53;;;;;;;;;;5040683;28;20034;-60
2024/04/08 08:39:50;;;;;;;5.28;2.30;;;;;;;;;;5026226;28;20030;-60
2024/04/08 08:42:19;;;;;;;8.02;3.13;;;;;;;;;;5008285;28;20041;-58
2024/04/08 08:44:44;;;;;;;;;;;;;;;;;;5024323;28;20115;-57
2024/04/08 08:47:10;;;;;;;7.10;2.40;;;;;;;;;;5040476;28;19983;-59
2024/04/08 08:49:36;;;;;;;9.80;2.30;;;;;;;;;;5025401;28;20061;-57
2024/04/08 08:52:05;;;;;;;5.55;2.55;;;;;;;;;;5025298;28;20037;-59
2024/04/08 08:54:30;;;;;;;9.98;2.65;;;;;;;;;;5025111;28;20037;-58
2024/04/08 08:56:56;;;;;;;7.10;2.65;;;;;;;;;;5024051;28;20039;-57
2024/04/08 08:59:22;;;;;;;6.57;2.50;;;;;;;;;;5027248;28;20505;-59
2024/04/08 09:01:47;;;;;;;3.95;2.13;;;;;;;;;;5024115;28;20513;-60
2024/04/08 09:04:14;;;;;;;8.68;3.00;;;;;;;;;;5025255;28;20203;-60
2024/04/08 09:07:59;;;;;;;6.13;2.10;;;;;;;;;;5426913;26;20338;-56
2024/04/08 09:10:26;;;;;;;4.20;2.38;;;;;;;;;;5427193;26;20017;-58
2024/04/08 09:12:52;;;;;;;10.25;2.72;;;;;;;;;;5369458;26;20027;-56
2024/04/08 09:15:18;;;;;;;5.63;2.17;;;;;;;;;;5390295;26;20115;-59
2024/04/08 09:17:44;;;;;;;7.55;2.65;;;;;;;;;;5390944;26;20742;-55
2024/04/08 09:20:11;;;;;;;11.15;2.50;;;;;;;;;;5389445;26;20026;-56
2024/04/08 09:22:37;;;;;;;5.05;2.30;;;;;;;;;;5390566;26;20007;-53
2024/04/08 09:25:02;;;;;;;3.50;2.15;;;;;;;;;;5390836;26;20004;-59
2024/04/08 09:27:30;;;;;;;4.38;2.60;;;;;;;;;;5424278;26;20453;-59
2024/04/08 09:29:56;;;;;;;11.25;2.55;;;;;;;;;;5393157;26;20476;-58
2024/04/08 09:32:21;;;;;;;10.43;3.00;;;;;;;;;;5390984;26;20454;-56
2024/04/08 09:34:47;;;;;;;5.03;1.92;;;;;;;;;;5359308;26;20012;-58
2024/04/08 09:37:13;;;;;;;4.68;2.22;;;;;;;;;;5401908;26;20117;-57
2024/04/08 09:39:40;;;;;;;7.40;2.80;;;;;;;;;;5388449;26;20081;-60
2024/04/08 09:42:08;;;;;;;4.95;2.58;;;;;;;;;;5390846;26;20015;-60
2024/04/08 09:44:34;;;;;;;6.65;2.50;;;;;;;;;;5388377;26;20023;-58
2024/04/08 09:47:01;;;;;;;5.82;2.70;;;;;;;;;;5391493;26;20008;-57
2024/04/08 09:49:27;;;;;;;7.82;2.95;;;;;;;;;;5390357;26;20077;-57
2024/04/08 09:51:55;;;;;;;7.75;3.25;;;;;;;;;;5388914;26;20508;-60
2024/04/08 09:54:21;;;;;;;7.15;2.95;;;;;;;;;;5359196;26;20023;-58
2024/04/08 09:56:48;;;;;;;7.10;2.92;;;;;;;;;;5389304;26;20403;-58
2024/04/08 09:59:24;;;;;;;5.45;2.50;;;;;;;;;;5388565;26;20434;-59
2024/04/08 10:01:53;;;;;;;6.07;2.63;;;;;;;;;;5391142;26;20081;-59
2024/04/08 10:04:18;;;;;;;5.55;3.25;;;;;;;;;;5391021;26;20012;-59
2024/04/08 10:06:46;;;;;;;4.03;2.35;;;;;;;;;;5388460;26;20022;-58
2024/04/08 10:09:12;;;;;;;7.38;2.92;;;;;;;;;;5388700;26;20115;-60
2024/04/08 10:11:38;;;;;;;6.25;2.50;;;;;;;;;;5390000;26;20004;-60
2024/04/08 10:14:14;;;;;;;5.45;2.00;;;;;;;;;;5389843;26;20527;-59
2024/04/08 10:16:40;;;;;;;3.95;2.20;;;;;;;;;;5358831;26;20018;-58
2024/04/08 10:19:07;;;;;;;4.90;2.17;;;;;;;;;;5375250;26;20008;-57
2024/04/08 10:21:33;;;;;;;5.70;1.65;;;;;;;;;;5373028;26;20013;-59
2024/04/08 10:23:59;;;;;;;4.38;2.03;;;;;;;;;;5373023;26;20012;-57
2024/04/08 10:26:25;;;;;;;4.05;2.10;;;;;;;;;;5372762;26;20008;-59
2024/04/08 10:28:51;;;;;;;4.20;2.08;;;;;;;;;;5375004;26;20009;-57
2024/04/08 10:31:21;;;;;;;11.05;4.18;;;;;;;;;;5374166;26;20012;-57
2024/04/08 10:33:47;;;;;;;7.05;1.58;;;;;;;;;;5397313;26;20398;-60
2024/04/08 10:36:12;;;;;;;7.43;2.10;;;;;;;;;;5409830;26;20041;-59
2024/04/08 10:38:38;;;;;;;4.55;2.38;;;;;;;;;;5381403;26;20524;-59
2024/04/08 10:41:05;;;;;;;6.07;2.08;;;;;;;;;;5343646;26;20008;-59
2024/04/08 10:43:31;;;;;;;4.18;2.08;;;;;;;;;;5372507;26;20118;-59
2024/04/08 10:45:57;;;;;;;4.25;2.13;;;;;;;;;;5374638;26;20273;-58
2024/04/08 10:48:23;;;;;;;6.03;1.95;;;;;;;;;;5372959;26;20005;-59
2024/04/08 10:50:49;;;;;;;8.40;2.15;;;;;;;;;;5393892;26;20016;-59
2024/04/08 10:53:15;;;;;;;4.90;1.90;;;;;;;;;;5375204;26;20004;-57
2024/04/08 10:55:41;;;;;;;5.50;2.35;;;;;;;;;;5372766;26;20023;-59
2024/04/08 10:58:07;;;;;;;10.30;2.72;;;;;;;;;;5374160;26;20008;-58
2024/04/08 11:00:33;;;;;;;8.52;2.67;;;;;;;;;;5395327;26;20075;-59
2024/04/08 11:02:59;;;;;;;4.05;2.05;;;;;;;;;;5409391;26;20012;-57
2024/04/08 11:05:25;;;;;;;5.50;2.25;;;;;;;;;;5409611;26;20368;-55
2024/04/08 11:07:51;;;;;;;4.15;2.10;;;;;;;;;;5409668;26;20011;-60
2024/04/08 11:10:17;;;;;;;6.80;2.75;;;;;;;;;;5362737;26;20012;-57
2024/04/08 11:12:44;;;;;;;7.18;2.83;;;;;;;;;;5373865;26;20768;-58
2024/04/08 11:15:12;;;;;;;9.57;2.70;;;;;;;;;;5372049;26;20004;-60
2024/04/08 11:17:37;;;;;;;6.60;2.17;;;;;;;;;;5374092;26;20027;-58
2024/04/08 11:20:04;;;;;;;5.82;3.00;;;;;;;;;;5374292;26;20387;-58
2024/04/08 11:22:34;;;;;;;9.55;3.15;;;;;;;;;;5388999;26;20106;-58
2024/04/08 11:25:02;;;;;;;5.50;2.38;;;;;;;;;;5405983;26;20088;-58
2024/04/08 11:27:30;;;;;;;5.88;2.45;;;;;;;;;;5405790;26;20043;-58
2024/04/08 11:29:55;;;;;;;4.25;2.30;;;;;;;;;;5407306;26;20023;-59
2024/04/08 11:32:21;;;;;;;6.38;2.53;;;;;;;;;;5372584;26;20016;-59
2024/04/08 11:34:48;;;;;;;6.65;2.60;;;;;;;;;;5406990;26;20394;-59
2024/04/08 11:37:14;;;;;;;10.45;3.08;;;;;;;;;;5401077;26;20019;-60
2024/04/08 11:39:40;;;;;;;7.75;3.05;;;;;;;;;;5372295;26;20210;-59
2024/04/08 11:42:06;;;;;;;13.13;3.15;;;;;;;;;;5373461;26;20078;-60
2024/04/08 11:44:33;;;;;;;7.60;3.05;;;;;;;;;;5371721;26;20012;-58
2024/04/08 11:46:59;;;;;;;8.27;3.05;;;;;;;;;;5373237;26;20027;-57
2024/04/08 11:49:25;;;;;;;7.10;2.63;;;;;;;;;;5371157;26;20018;-58
2024/04/08 11:51:51;;;;;;;8.95;2.45;;;;;;;;;;5342734;26;20033;-57
2024/04/08 11:54:17;;;;;;;6.45;2.40;;;;;;;;;;5342156;26;20012;-58
2024/04/08 11:56:43;;;;;;;8.18;2.40;;;;;;;;;;5371733;26;20023;-61
2024/04/08 11:59:09;;;;;;;7.20;2.20;;;;;;;;;;5371709;26;20016;-58
2024/04/08 12:01:36;;;;;;;9.43;2.45;;;;;;;;;;5373871;26;20008;-58
2024/04/08 12:04:02;;;;;;;10.40;2.85;;;;;;;;;;5373309;26;20020;-59
2024/04/08 12:06:28;;;;;;;8.10;2.40;;;;;;;;;;5371542;26;20007;-58
2024/04/08 12:08:54;;;;;;;8.38;2.40;;;;;;;;;;5373427;26;20012;-59
2024/04/08 12:11:20;;;;;;;8.70;2.55;;;;;;;;;;5372530;26;20100;-59
2024/04/08 12:13:46;;;;;;;5.40;2.40;;;;;;;;;;5373721;26;20119;-59
2024/04/08 12:16:12;;;;;;;6.38;2.63;;;;;;;;;;5371670;26;20762;-58
2024/04/08 12:18:37;;;;;;;4.47;2.08;;;;;;;;;;5371406;26;20110;-58
2024/04/08 12:21:03;;;;;;;5.95;1.98;;;;;;;;;;5373353;26;20008;-60
2024/04/08 12:23:29;;;;;;;6.13;2.75;;;;;;;;;;5372952;26;20008;-59
2024/04/08 12:25:54;;;;;;;6.47;2.30;;;;;;;;;;5373574;26;20008;-57
2024/04/08 12:28:20;;;;;;;7.18;2.80;;;;;;;;;;5371558;26;20465;-58
2024/04/08 12:30:47;;;;;;;9.13;2.60;;;;;;;;;;5371040;26;20360;-59
2024/04/08 12:33:13;;;;;;;6.32;2.05;;;;;;;;;;5394746;26;20022;-60
2024/04/08 12:35:39;;;;;;;8.40;2.95;;;;;;;;;;5406328;26;20011;-58
2024/04/08 12:38:08;;;;;;;5.25;2.38;;;;;;;;;;5408163;26;20022;-58
2024/04/08 12:40:35;;;;;;;6.93;2.45;;;;;;;;;;5408066;26;20018;-57
2024/04/08 12:43:02;;;;;;;6.50;2.88;;;;;;;;;;5397158;26;20016;-58
2024/04/08 12:45:28;;;;;;;7.82;2.33;;;;;;;;;;5342182;26;20008;-58
2024/04/08 12:47:54;;;;;;;6.65;2.60;;;;;;;;;;5372931;26;20019;-56
2024/04/08 12:50:20;;;;;;;11.13;2.65;;;;;;;;;;5373504;26;20085;-61
2024/04/08 12:52:48;;;;;;;5.00;2.97;;;;;;;;;;5371587;26;20008;-54
2024/04/08 12:55:14;;;;;;;5.63;2.35;;;;;;;;;;5371117;26;20011;-56
2024/04/08 12:57:39;;;;;;;5.78;1.88;;;;;;;;;;5373034;26;20012;-55
2024/04/08 13:00:05;;;;;;;6.22;2.97;;;;;;;;;;5371119;26;20103;-59
2024/04/08 13:02:31;;;;;;;6.03;2.85;;;;;;;;;;5372484;26;20008;-60
2024/04/08 13:04:57;;;;;;;6.13;2.10;;;;;;;;;;5371292;26;20022;-59
2024/04/08 13:07:23;;;;;;;8.48;2.90;;;;;;;;;;5370602;26;20090;-60
2024/04/08 13:09:51;;;;;;;7.43;2.53;;;;;;;;;;5341783;26;20085;-59
2024/04/08 13:12:17;;;;;;;5.45;2.35;;;;;;;;;;5372777;26;20008;-58
2024/04/08 13:14:43;;;;;;;7.22;2.28;;;;;;;;;;5373369;26;20012;-59
2024/04/08 13:17:09;;;;;;;5.25;2.08;;;;;;;;;;5372722;26;20009;-59
2024/04/08 13:19:34;;;;;;;6.20;2.22;;;;;;;;;;5372747;26;20089;-59
2024/04/08 13:22:00;;;;;;;7.65;2.70;;;;;;;;;;5371457;26;20008;-57
2024/04/08 13:24:27;;;;;;;5.93;2.63;;;;;;;;;;5370655;26;20022;-58
2024/04/08 13:26:53;;;;;;;6.03;2.60;;;;;;;;;;5370332;26;20012;-58
2024/04/08 13:29:19;;;;;;;4.28;2.58;;;;;;;;;;5372470;26;20111;-56
2024/04/08 13:31:44;;;;;;;7.03;2.47;;;;;;;;;;5370812;26;20023;-59
2024/04/08 13:34:10;;;;;;;6.25;2.20;;;;;;;;;;5341183;26;20032;-58
2024/04/08 13:36:36;;;;;;;4.80;2.80;;;;;;;;;;5372733;26;20022;-58
2024/04/08 13:39:03;;;;;;;5.95;2.42;;;;;;;;;;5406202;26;20085;-58
2024/04/08 13:41:28;;;;;;;6.25;2.70;;;;;;;;;;5407584;26;20023;-56
2024/04/08 13:43:54;;;;;;;4.65;2.40;;;;;;;;;;5406051;26;20008;-61
2024/04/08 13:46:19;;;;;;;8.30;2.75;;;;;;;;;;5375328;26;20404;-60
2024/04/08 13:48:46;;;;;;;7.40;2.50;;;;;;;;;;5370753;26;20023;-58
2024/04/08 13:51:12;;;;;;;11.50;2.78;;;;;;;;;;5372285;26;20040;-60
2024/04/08 13:53:37;;;;;;;7.28;2.80;;;;;;;;;;5374018;26;20015;-58
2024/04/08 13:56:03;;;;;;;8.10;2.38;;;;;;;;;;5375016;26;20020;-57
2024/04/08 13:58:29;;;;;;;6.72;2.88;;;;;;;;;;5373544;26;20012;-59
2024/04/08 14:00:55;;;;;;;6.43;2.50;;;;;;;;;;5374073;26;20022;-58
2024/04/08 14:03:25;;;;;;;10.00;2.90;;;;;;;;;;5376014;26;20019;-57
2024/04/08 14:05:50;;;;;;;4.53;2.47;;;;;;;;;;5374433;26;20382;-57
2024/04/08 14:08:16;;;;;;;8.70;2.70;;;;;;;;;;5374059;26;20019;-63
2024/04/08 14:10:42;;;;;;;3.67;1.70;;;;;;;;;;5375642;26;20036;-58
2024/04/08 14:13:08;;;;;;;6.05;2.50;;;;;;;;;;5375559;26;20008;-58
2024/04/08 14:15:34;;;;;;;10.63;2.80;;;;;;;;;;5375763;26;20023;-60
2024/04/08 14:17:59;;;;;;;11.48;3.63;;;;;;;;;;5374874;26;20597;-59
2024/04/08 14:20:25;;;;;;;5.30;2.30;;;;;;;;;;5373539;26;20023;-62
2024/04/08 14:22:55;;;;;;;10.00;4.15;;;;;;;;;;5379275;26;20247;-58
2024/04/08 14:25:21;;;;;;;8.40;2.42;;;;;;;;;;5410636;26;20015;-54
2024/04/08 14:27:47;;;;;;;13.85;5.15;;;;;;;;;;5379873;26;20544;-57
2024/04/08 14:30:13;;;;;;;6.25;2.33;;;;;;;;;;5375637;26;20093;-61
2024/04/08 14:32:39;;;;;;;13.15;3.35;;;;;;;;;;5344721;26;20020;-56
2024/04/08 14:35:06;;;;;;;8.32;2.92;;;;;;;;;;5373464;26;20018;-60
2024/04/08 14:37:32;;;;;;;14.13;3.78;;;;;;;;;;5384717;26;20414;-59